Time;durP1;ratioP1;P1;durP2;ratioP2;P2;SDS_P1;SDS_P2;PMS_P1;PMS_P2;Temp;Humidity;BMP_temperature;BMP_pressure;BME280_temperature;BME280_humidity;BME280_pressure;Samples;Min_cycle;Max_cycle;Signal;HPM_P1;HPM_P2
2022/10/12 00:01:53;;;;;;;24.18;9.20;;;;;;;7.50;94.52;99968.98;1697102;84;20867;-83
2022/10/12 00:04:19;;;;;;;21.35;8.35;;;;;;;7.48;95.35;99972.55;1697363;84;21022;-83
2022/10/12 00:06:45;;;;;;;16.80;7.00;;;;;;;7.46;95.75;99974.20;1697121;84;20867;-83
2022/10/12 00:09:12;;;;;;;18.15;8.00;;;;;;;7.42;95.97;99967.68;1697095;84;21153;-82
2022/10/12 00:11:40;;;;;;;16.35;8.35;;;;;;;7.39;96.06;99971.53;1696979;84;20924;-82
2022/10/12 00:14:07;;;;;;;18.20;8.48;;;;;;;7.33;96.30;99972.66;1697181;84;20884;-82
2022/10/12 00:16:35;;;;;;;16.45;7.35;;;;;;;7.23;96.81;99971.63;1697055;84;21519;-82
2022/10/12 00:19:01;;;;;;;16.32;8.08;;;;;;;7.17;97.27;99970.03;1697125;84;20955;-81
2022/10/12 00:21:28;;;;;;;16.93;7.05;;;;;;;7.07;97.41;99972.83;1697162;84;21034;-80
2022/10/12 00:23:57;;;;;;;21.90;9.20;;;;;;;7.00;97.87;99976.95;1697277;84;21467;-83
2022/10/12 00:26:24;;;;;;;21.27;9.03;;;;;;;6.88;97.97;99979.50;1697065;84;21576;-80
2022/10/12 00:28:56;;;;;;;18.60;8.15;;;;;;;6.77;98.15;99984.73;1697106;84;20951;-80
2022/10/12 00:31:25;;;;;;;21.70;7.65;;;;;;;6.65;98.50;99983.43;1697124;84;20960;-80
2022/10/12 00:33:51;;;;;;;20.27;8.70;;;;;;;6.57;99.51;99982.09;1697072;84;21751;-81
2022/10/12 00:36:27;;;;;;;22.32;8.30;;;;;;;6.53;100.00;99987.29;1696961;82;21568;-82
2022/10/12 00:38:54;;;;;;;20.75;9.20;;;;;;;6.52;100.00;99987.56;1697201;84;20958;-81
2022/10/12 00:41:24;;;;;;;18.90;8.28;;;;;;;6.48;100.00;99985.94;1697467;84;20986;-83
2022/10/12 00:43:51;;;;;;;19.17;8.40;;;;;;;6.43;100.00;99985.95;1697146;84;21517;-83
2022/10/12 00:46:23;;;;;;;20.17;8.33;;;;;;;6.40;100.00;99987.88;1697261;84;21133;-82
2022/10/12 00:48:57;;;;;;;20.17;7.97;;;;;;;6.37;100.00;99988.43;1697191;83;21482;-81
2022/10/12 00:51:24;;;;;;;24.37;8.13;;;;;;;6.32;100.00;99989.02;1697235;84;21011;-84
2022/10/12 00:53:59;;;;;;;19.35;8.08;;;;;;;6.25;100.00;99986.58;1697509;84;21002;-81
2022/10/12 00:56:28;;;;;;;15.43;7.90;;;;;;;6.21;100.00;99985.50;1696988;84;20887;-80
2022/10/12 00:58:55;;;;;;;18.80;8.03;;;;;;;6.22;100.00;99985.77;1697238;84;21847;-85
2022/10/12 01:01:22;;;;;;;18.30;8.20;;;;;;;6.21;100.00;99982.77;1697184;83;21007;-84
2022/10/12 01:03:49;;;;;;;16.25;7.30;;;;;;;6.20;100.00;99988.77;1697174;84;20958;-84
2022/10/12 01:06:15;;;;;;;15.10;8.18;;;;;;;6.16;100.00;99990.96;1697522;84;20943;-84
2022/10/12 01:08:42;;;;;;;17.77;7.72;;;;;;;6.09;100.00;99991.79;1697226;84;21537;-84
2022/10/12 01:11:10;;;;;;;14.03;7.72;;;;;;;6.01;100.00;99997.80;1697248;84;21146;-83
2022/10/12 01:13:37;;;;;;;16.15;7.75;;;;;;;5.94;100.00;99997.53;1697121;83;20935;-83
2022/10/12 01:16:30;;;;;;;23.45;8.95;;;;;;;5.93;100.00;99994.53;1697198;83;20880;-82
2022/10/12 01:19:45;;;;;;;13.98;7.50;;;;;;;5.95;100.00;99995.63;1697539;83;20947;-82
2022/10/12 01:22:18;;;;;;;15.88;8.48;;;;;;;6.05;100.00;100006.52;1697358;84;20872;-82
2022/10/12 01:24:54;;;;;;;14.03;6.97;;;;;;;6.10;100.00;100008.41;1697265;84;21166;-83
2022/10/12 01:27:53;;;;;;;16.30;8.40;;;;;;;6.09;100.00;100004.88;1697487;84;20998;-83
2022/10/12 01:30:35;;;;;;;16.67;8.50;;;;;;;6.07;100.00;100007.05;1694758;84;20923;-82
2022/10/12 01:33:25;;;;;;;15.90;7.78;;;;;;;6.06;100.00;100010.88;1697400;84;20959;-82
2022/10/12 01:36:12;;;;;;;16.20;7.90;;;;;;;6.04;100.00;100013.60;1698167;82;20999;-82
2022/10/12 01:38:56;;;;;;;20.75;8.63;;;;;;;5.95;100.00;100009.25;1690275;84;21894;-82
2022/10/12 01:41:30;;;;;;;17.82;8.70;;;;;;;5.94;100.00;100017.97;1676838;85;21059;-82
2022/10/12 01:43:58;;;;;;;20.40;9.23;;;;;;;5.91;100.00;100021.23;1676803;85;21054;-82
2022/10/12 01:46:30;;;;;;;18.87;8.38;;;;;;;5.94;100.00;100019.33;1676877;85;21448;-83
2022/10/12 01:48:58;;;;;;;;;;;;;;;5.99;100.00;100022.59;1679776;85;20897;-82
2022/10/12 01:51:36;;;;;;;18.37;8.43;;;;;;;6.07;100.00;100028.86;1676879;84;21141;-83
2022/10/12 01:54:37;;;;;;;22.70;9.80;;;;;;;6.11;100.00;100025.86;1676923;85;20936;-83
2022/10/12 01:57:14;;;;;;;21.85;9.03;;;;;;;6.15;100.00;100028.85;1677092;85;20957;-82
2022/10/12 01:59:55;;;;;;;17.37;9.25;;;;;;;6.16;100.00;100029.94;1677142;84;21032;-82
2022/10/12 02:02:35;;;;;;;21.40;9.73;;;;;;;6.18;100.00;100029.67;1676543;85;21011;-77
2022/10/12 02:05:28;;;;;;;19.27;8.23;;;;;;;6.15;100.00;100027.49;1677009;85;21198;-82
2022/10/12 02:08:25;;;;;;;19.23;9.13;;;;;;;6.12;100.00;100022.59;1645742;87;20952;-80
2022/10/12 02:10:59;;;;;;;19.75;9.93;;;;;;;6.09;100.00;100023.14;1674766;85;20880;-80
2022/10/12 02:13:29;;;;;;;16.35;8.05;;;;;;;6.10;100.00;100027.50;1676936;85;20877;-80
2022/10/12 02:15:56;;;;;;;16.73;9.23;;;;;;;6.07;100.00;100026.14;1677197;85;21480;-80
2022/10/12 02:18:23;;;;;;;20.20;9.45;;;;;;;6.08;100.00;100032.41;1677001;85;21133;-80
2022/10/12 02:20:51;;;;;;;19.67;9.60;;;;;;;6.06;100.00;100029.95;1676788;85;20952;-81
2022/10/12 02:23:18;;;;;;;16.00;9.05;;;;;;;6.02;100.00;100029.41;1677196;85;21491;-81
2022/10/12 02:25:45;;;;;;;16.82;9.40;;;;;;;5.95;100.00;100029.14;1676956;85;20956;-81
2022/10/12 02:28:15;;;;;;;17.80;9.75;;;;;;;5.92;100.00;100026.96;1676891;85;20996;-78
2022/10/12 02:31:10;;;;;;;18.05;9.25;;;;;;;5.89;100.00;100023.42;1677075;85;21115;-78
2022/10/12 02:34:22;;;;;;;17.62;8.68;;;;;;;5.88;100.00;100032.66;1705713;83;20954;-79
2022/10/12 02:36:53;;;;;;;16.23;8.23;;;;;;;5.84;100.00;100031.56;1650719;85;21026;-80
2022/10/12 02:39:27;;;;;;;15.25;8.95;;;;;;;5.83;100.00;100029.92;1651005;86;20928;-79
2022/10/12 02:41:57;;;;;;;19.50;8.93;;;;;;;5.84;100.00;100037.02;1666480;85;20952;-79
2022/10/12 02:44:28;;;;;;;16.25;8.25;;;;;;;5.86;100.00;100037.56;1676891;85;21878;-81
2022/10/12 02:46:56;;;;;;;17.95;9.18;;;;;;;5.86;100.00;100037.56;1676987;85;20869;-78
2022/10/12 02:49:24;;;;;;;16.23;9.38;;;;;;;5.90;100.00;100046.03;1676847;85;20955;-80
2022/10/12 02:51:52;;;;;;;17.80;9.70;;;;;;;5.93;100.00;100043.59;1676863;85;20987;-80
2022/10/12 02:54:20;;;;;;;19.90;10.15;;;;;;;6.00;100.00;100053.39;1676870;85;21027;-80
2022/10/12 02:56:46;;;;;;;19.55;10.88;;;;;;;6.07;100.00;100053.39;1676834;85;21471;-82
2022/10/12 02:59:14;;;;;;;17.37;10.25;;;;;;;6.13;100.00;100056.94;1676849;85;20904;-82
2022/10/12 03:01:42;;;;;;;22.50;10.05;;;;;;;6.20;100.00;100054.74;1676776;84;21527;-77
2022/10/12 03:04:09;;;;;;;18.62;10.30;;;;;;;6.28;100.00;100056.92;1681054;84;20980;-78
2022/10/12 03:06:35;;;;;;;23.05;10.15;;;;;;;6.29;100.00;100055.83;1683547;85;20941;-77
2022/10/12 03:09:04;;;;;;;20.55;10.15;;;;;;;6.34;100.00;100060.45;1684786;85;21146;-80
2022/10/12 03:11:32;;;;;;;23.45;11.03;;;;;;;6.37;100.00;100064.78;1684660;85;21511;-80
2022/10/12 03:13:58;;;;;;;19.02;9.88;;;;;;;6.39;100.00;100059.05;1684780;85;21003;-82
2022/10/12 03:16:25;;;;;;;18.27;10.43;;;;;;;6.41;100.00;100064.50;1684432;85;20908;-80
2022/10/12 03:18:52;;;;;;;20.00;10.38;;;;;;;6.42;100.00;100063.95;1684970;85;21016;-82
2022/10/12 03:21:19;;;;;;;20.17;10.78;;;;;;;6.44;100.00;100067.23;1684568;85;21847;-82
2022/10/12 03:23:46;;;;;;;22.22;11.55;;;;;;;6.44;100.00;100061.23;1684258;85;21000;-82
2022/10/12 03:26:12;;;;;;;18.75;10.85;;;;;;;6.46;100.00;100063.67;1684635;85;21020;-82
2022/10/12 03:28:39;;;;;;;25.75;10.80;;;;;;;6.46;100.00;100067.22;1684942;85;21040;-81
2022/10/12 03:31:06;;;;;;;22.55;10.90;;;;;;;6.45;100.00;100062.86;1684524;85;20953;-81
2022/10/12 03:33:33;;;;;;;22.52;12.25;;;;;;;6.45;100.00;100076.50;1684625;85;21543;-79
2022/10/12 03:36:00;;;;;;;20.35;11.30;;;;;;;6.47;100.00;100069.41;1680728;85;21012;-79
2022/10/12 03:38:26;;;;;;;22.62;12.37;;;;;;;6.48;100.00;100071.85;1672958;84;21464;-80
2022/10/12 03:40:53;;;;;;;22.98;12.45;;;;;;;6.50;100.00;100072.40;1671212;84;20889;-80
2022/10/12 03:43:20;;;;;;;25.37;12.35;;;;;;;6.51;100.00;100073.21;1671910;84;20956;-83
2022/10/12 03:45:47;;;;;;;23.85;12.37;;;;;;;6.50;100.00;100079.22;1671283;85;21086;-80
2022/10/12 03:48:13;;;;;;;27.52;12.80;;;;;;;6.48;100.00;100072.41;1671772;84;21460;-80
2022/10/12 03:50:40;;;;;;;29.57;12.98;;;;;;;6.49;100.00;100074.85;1673163;84;21000;-82
2022/10/12 03:53:07;;;;;;;22.10;12.28;;;;;;;6.47;100.00;100075.67;1670452;84;20949;-81
2022/10/12 03:55:35;;;;;;;24.45;12.75;;;;;;;6.43;100.00;100075.14;1671773;84;20905;-81
2022/10/12 03:58:01;;;;;;;21.60;12.15;;;;;;;6.35;100.00;100076.55;1672249;85;21101;-81
2022/10/12 04:00:28;;;;;;;19.40;11.80;;;;;;;6.26;100.00;100078.19;1671919;85;21052;-80
2022/10/12 04:02:57;;;;;;;25.17;12.78;;;;;;;6.17;100.00;100071.11;1665190;84;21447;-80
2022/10/12 04:05:24;;;;;;;21.80;12.55;;;;;;;6.07;100.00;100071.11;1670113;85;20968;-78
2022/10/12 04:07:50;;;;;;;21.73;11.73;;;;;;;5.96;100.00;100081.19;1652170;86;20972;-81
2022/10/12 04:10:18;;;;;;;21.73;12.10;;;;;;;5.87;100.00;100082.78;1671271;86;21123;-78
2022/10/12 04:12:45;;;;;;;19.27;11.30;;;;;;;5.77;100.00;100086.08;1671445;85;20866;-79
2022/10/12 04:15:11;;;;;;;21.48;12.15;;;;;;;5.65;100.00;100093.14;1671498;85;20940;-79
2022/10/12 04:17:38;;;;;;;21.57;12.13;;;;;;;5.54;100.00;100084.67;1671142;86;21156;-79
2022/10/12 04:20:08;;;;;;;24.80;11.90;;;;;;;5.51;100.00;100098.83;1671438;84;20929;-80
2022/10/12 04:22:37;;;;;;;17.77;9.85;;;;;;;5.46;100.00;100101.00;1671403;86;21591;-78
2022/10/12 04:25:04;;;;;;;27.75;12.78;;;;;;;5.41;100.00;100105.06;1686340;85;20943;-78
2022/10/12 04:27:30;;;;;;;31.37;13.83;;;;;;;5.41;100.00;100110.52;1686556;84;20945;-79
2022/10/12 04:29:58;;;;;;;26.45;12.88;;;;;;;5.47;100.00;100114.06;1686507;85;21851;-79
2022/10/12 04:32:24;;;;;;;23.83;12.45;;;;;;;5.47;100.00;100114.06;1686723;85;20908;-79
2022/10/12 04:34:51;;;;;;;24.72;13.08;;;;;;;5.45;100.00;100112.16;1686535;85;21654;-76
2022/10/12 04:37:18;;;;;;;26.07;13.65;;;;;;;5.42;100.00;100122.22;1686404;85;21395;-78
2022/10/12 04:39:45;;;;;;;26.02;13.60;;;;;;;5.38;100.00;100119.22;1686576;85;20948;-77
2022/10/12 04:42:11;;;;;;;24.65;13.90;;;;;;;5.43;100.00;100115.15;1686801;83;21538;-78
2022/10/12 04:44:38;;;;;;;29.65;14.30;;;;;;;5.48;100.00;100119.25;1686613;85;21095;-80
2022/10/12 04:47:04;;;;;;;24.60;14.53;;;;;;;5.46;100.00;100115.97;1686620;85;21565;-78
2022/10/12 04:49:31;;;;;;;27.60;14.60;;;;;;;5.45;100.00;100118.96;1686564;85;21002;-78
2022/10/12 04:51:57;;;;;;;27.65;14.75;;;;;;;5.46;100.00;100115.97;1686438;85;21395;-76
2022/10/12 04:54:24;;;;;;;25.32;13.75;;;;;;;5.47;100.00;100122.23;1685541;84;20960;-82
2022/10/12 04:56:51;;;;;;;32.60;15.35;;;;;;;5.50;100.00;100126.61;1686613;84;20959;-82
2022/10/12 04:59:18;;;;;;;28.40;14.80;;;;;;;5.53;100.00;100127.97;1686416;84;21030;-81
2022/10/12 05:01:45;;;;;;;30.77;15.88;;;;;;;5.57;100.00;100133.16;1683976;84;21502;-77
2022/10/12 05:04:11;;;;;;;26.65;16.00;;;;;;;5.66;100.00;100128.83;1658648;84;20945;-83
2022/10/12 05:06:38;;;;;;;32.67;16.32;;;;;;;5.74;100.00;100131.57;1665844;85;21558;-84
2022/10/12 05:09:06;;;;;;;29.95;16.82;;;;;;;5.79;100.00;100123.38;1659358;86;21573;-85
2022/10/12 05:11:35;;;;;;;28.47;16.12;;;;;;;5.85;100.00;100129.11;1659590;85;21784;-88
2022/10/12 05:14:03;;;;;;;33.18;17.37;;;;;;;5.99;100.00;100132.16;1660226;85;21590;-88
2022/10/12 05:16:29;;;;;;;27.05;15.85;;;;;;;5.99;100.00;100132.16;1674419;85;20999;-82
2022/10/12 05:18:56;;;;;;;28.05;16.97;;;;;;;6.06;100.00;100134.07;1687922;83;20976;-85
2022/10/12 05:21:23;;;;;;;28.62;16.93;;;;;;;6.18;100.00;100138.17;1687731;85;20927;-82
2022/10/12 05:23:50;;;;;;;28.57;16.00;;;;;;;6.37;100.00;100132.14;1687548;85;21788;-82
2022/10/12 05:26:17;;;;;;;24.75;14.40;;;;;;;6.37;100.00;100132.14;1687645;83;21471;-82
2022/10/12 05:28:45;;;;;;;32.33;16.02;;;;;;;6.51;100.00;100140.86;1687757;85;21468;-80
2022/10/12 05:31:12;;;;;;;30.72;16.05;;;;;;;6.64;100.00;100138.12;1687732;83;20947;-84
2022/10/12 05:33:38;;;;;;;37.20;16.93;;;;;;;6.77;100.00;100141.64;1687043;84;21026;-84
2022/10/12 05:36:06;;;;;;;27.67;16.23;;;;;;;6.88;100.00;100144.63;1688076;84;21201;-85
2022/10/12 05:38:33;;;;;;;32.20;17.25;;;;;;;6.99;100.00;100149.48;1703725;84;20944;-82
2022/10/12 05:40:59;;;;;;;23.35;14.70;;;;;;;7.10;100.00;100148.36;1703488;84;21020;-83
2022/10/12 05:43:27;;;;;;;27.73;16.05;;;;;;;7.22;100.00;100153.50;1703028;83;20908;-85
2022/10/12 05:45:54;;;;;;;28.55;15.48;;;;;;;7.35;100.00;100156.19;1703368;83;21011;-83
2022/10/12 05:48:20;;;;;;;28.23;16.82;;;;;;;7.46;100.00;100155.05;1702094;84;21100;-87
2022/10/12 05:50:47;;;;;;;29.32;16.82;;;;;;;7.55;100.00;100156.89;1702336;84;21091;-78
2022/10/12 05:53:15;;;;;;;27.67;16.32;;;;;;;7.68;100.00;100158.73;1680434;84;21136;-86
2022/10/12 05:55:53;;;;;;;31.48;17.05;;;;;;;7.79;100.00;100157.03;1702493;83;21146;-86
2022/10/12 05:58:20;;;;;;;26.65;15.38;;;;;;;7.89;100.00;100162.44;1702883;83;20956;-84
2022/10/12 06:00:48;;;;;;;27.87;16.42;;;;;;;8.02;100.00;100162.91;1702277;83;21149;-85
2022/10/12 06:03:14;;;;;;;27.10;16.42;;;;;;;8.14;100.00;100162.80;1701648;84;21610;-74
2022/10/12 06:05:42;;;;;;;25.02;13.55;;;;;;;8.25;100.00;100157.52;1702696;83;20904;-78
2022/10/12 06:08:13;;;;;;;26.45;14.80;;;;;;;8.38;100.00;100162.11;1703440;84;21661;-75
2022/10/12 06:10:45;;;;;;;25.52;15.28;;;;;;;8.45;100.00;100164.78;1703700;84;21000;-77
2022/10/12 06:13:16;;;;;;;48.13;33.33;;;;;;;8.55;100.00;100168.80;1703412;83;21168;-78
2022/10/12 06:15:47;;;;;;;41.37;27.05;;;;;;;8.67;100.00;100172.50;1702716;83;20999;-77
2022/10/12 06:18:15;;;;;;;29.07;16.87;;;;;;;8.78;100.00;100174.59;1703623;84;20967;-80
2022/10/12 06:20:48;;;;;;;28.98;16.10;;;;;;;8.85;100.00;100173.70;1671845;85;21574;-76
2022/10/12 06:23:17;;;;;;;23.98;14.30;;;;;;;8.92;100.00;100181.02;1670140;86;21004;-77
2022/10/12 06:25:50;;;;;;;24.98;13.22;;;;;;;8.98;100.00;100182.61;1669222;85;21120;-80
2022/10/12 06:28:19;;;;;;;21.68;13.50;;;;;;;9.05;100.00;100187.19;1669168;86;20977;-77
2022/10/12 06:30:54;;;;;;;27.42;13.83;;;;;;;9.12;100.00;100182.19;1702635;84;20892;-83
2022/10/12 06:33:24;;;;;;;23.40;13.78;;;;;;;9.23;100.00;100184.26;1678440;83;22197;-88
2022/10/12 06:35:59;;;;;;;28.98;13.50;;;;;;;9.35;100.00;100190.12;1682219;84;21011;-79
2022/10/12 06:38:31;;;;;;;19.52;12.70;;;;;;;9.50;100.00;100182.27;1706375;83;21165;-84
2022/10/12 06:41:05;;;;;;;21.97;13.30;;;;;;;9.91;100.00;100186.08;1712687;83;21569;-81
2022/10/12 06:43:34;;;;;;;29.65;14.18;;;;;;;10.50;100.00;100194.26;1708971;83;21493;-78
2022/10/12 06:46:05;;;;;;;28.27;12.70;;;;;;;11.09;100.00;100202.27;1648816;85;20971;-79
2022/10/12 06:48:32;;;;;;;17.60;10.60;;;;;;;11.54;100.00;100192.89;1712996;83;20939;-82
2022/10/12 06:50:58;;;;;;;19.10;10.68;;;;;;;11.85;100.00;100198.57;1713991;83;21123;-83
2022/10/12 06:53:27;;;;;;;18.25;10.90;;;;;;;12.31;100.00;100202.45;1709457;83;21417;-81
2022/10/12 06:55:56;;;;;;;21.05;11.55;;;;;;;12.79;100.00;100201.25;1707449;82;21446;-75
2022/10/12 06:58:23;;;;;;;13.15;8.85;;;;;;;13.13;99.64;100202.02;1696594;82;21010;-78
2022/10/12 07:00:54;;;;;;;16.67;10.30;;;;;;;13.38;92.94;100202.45;1717942;83;20946;-78
2022/10/12 07:03:23;;;;;;;19.77;10.25;;;;;;;13.40;91.48;100212.61;1710997;83;21205;-81
2022/10/12 07:05:50;;;;;;;15.10;9.45;;;;;;;13.36;90.21;100211.05;1694083;84;21046;-78
2022/10/12 07:08:17;;;;;;;20.50;10.68;;;;;;;13.48;90.51;100204.37;1694139;84;20949;-79
2022/10/12 07:10:43;;;;;;;25.55;11.93;;;;;;;13.62;88.19;100207.02;1694153;84;20976;-81
2022/10/12 07:13:14;;;;;;;17.87;10.55;;;;;;;13.74;87.70;100211.34;1696934;84;21055;-72
2022/10/12 07:15:48;;;;;;;17.50;10.28;;;;;;;13.92;85.94;100217.70;1698634;84;20924;-77
2022/10/12 07:18:20;;;;;;;17.53;10.70;;;;;;;14.11;84.73;100209.13;1664640;86;20901;-76
2022/10/12 07:20:53;;;;;;;21.62;10.25;;;;;;;14.14;82.62;100214.81;1647968;87;21020;-77
2022/10/12 07:23:20;;;;;;;18.15;9.88;;;;;;;14.23;83.16;100214.83;1648143;87;20936;-77
2022/10/12 07:25:51;;;;;;;20.00;8.43;;;;;;;14.53;83.61;100218.00;1664898;85;21327;-79
2022/10/12 07:28:20;;;;;;;18.65;8.43;;;;;;;14.93;82.10;100223.33;1637932;87;21920;-78
2022/10/12 07:30:48;;;;;;;16.55;8.78;;;;;;;15.23;79.73;100220.05;1646000;87;20937;-78
2022/10/12 07:33:15;;;;;;;18.42;9.05;;;;;;;15.35;76.64;100225.71;1645815;87;20996;-84
2022/10/12 07:35:45;;;;;;;14.83;8.20;;;;;;;15.43;77.43;100221.29;1646557;87;21040;-78
2022/10/12 07:38:12;;;;;;;14.13;8.13;;;;;;;15.73;76.98;100214.64;1648981;86;20948;-75
2022/10/12 07:40:39;;;;;;;17.00;8.95;;;;;;;16.05;74.65;100219.27;1653447;86;21149;-76
2022/10/12 07:43:12;;;;;;;19.05;8.60;;;;;;;16.29;74.33;100221.35;1653659;86;20938;-78
2022/10/12 07:45:42;;;;;;;15.38;8.75;;;;;;;16.54;72.61;100226.45;1653009;86;21030;-76
2022/10/12 07:48:10;;;;;;;11.73;7.53;;;;;;;16.79;72.16;100222.07;1653490;86;21648;-71
2022/10/12 07:50:37;;;;;;;16.27;7.75;;;;;;;17.06;70.86;100227.59;1653289;86;21001;-72
2022/10/12 07:53:05;;;;;;;14.55;8.60;;;;;;;17.24;69.82;100228.22;1666544;86;21079;-80
2022/10/12 07:55:32;;;;;;;13.53;7.62;;;;;;;17.27;67.78;100223.95;1666386;86;20960;-80
2022/10/12 07:58:01;;;;;;;16.82;7.50;;;;;;;17.29;67.47;100231.34;1666821;85;21048;-79
2022/10/12 08:00:31;;;;;;;16.10;7.22;;;;;;;17.53;67.33;100216.67;1627147;88;20992;-81
2022/10/12 08:03:01;;;;;;;12.28;6.72;;;;;;;17.87;65.35;100220.98;1666776;85;20886;-77
2022/10/12 08:05:31;;;;;;;14.40;6.70;;;;;;;18.13;64.34;100217.23;1666945;86;21121;-76
2022/10/12 08:07:59;;;;;;;13.80;6.42;;;;;;;18.37;63.61;100218.57;1656977;86;20995;-77
2022/10/12 08:10:26;;;;;;;11.15;6.70;;;;;;;18.59;60.38;100219.17;1665037;86;20937;-78
2022/10/12 08:12:54;;;;;;;18.40;5.95;;;;;;;18.33;59.62;100217.66;1648165;87;20952;-77
2022/10/12 08:15:21;;;;;;;11.08;6.37;;;;;;;18.07;60.83;100218.62;1664592;85;20905;-79
2022/10/12 08:17:49;;;;;;;11.25;6.33;;;;;;;17.93;60.73;100213.44;1648097;87;21000;-78
2022/10/12 08:20:16;;;;;;;11.83;6.75;;;;;;;17.83;61.45;100221.45;1647477;86;20980;-78
2022/10/12 08:22:45;;;;;;;11.70;5.10;;;;;;;17.94;61.57;100218.41;1661599;85;20982;-76
2022/10/12 08:25:15;;;;;;;8.75;5.62;;;;;;;18.22;61.50;100222.08;1654829;86;20999;-79
2022/10/12 08:27:43;;;;;;;10.25;5.80;;;;;;;18.38;59.57;100220.19;1625489;86;20924;-81
2022/10/12 08:30:14;;;;;;;13.62;5.37;;;;;;;18.34;58.47;100224.83;1647807;86;21125;-82
2022/10/12 08:32:43;;;;;;;10.68;5.20;;;;;;;18.21;59.26;100221.84;1646660;87;20914;-90
2022/10/12 08:35:12;;;;;;;10.65;5.25;;;;;;;18.15;59.87;100214.91;1647651;87;20979;-87
2022/10/12 08:37:44;;;;;;;9.53;5.20;;;;;;;18.16;58.48;100220.70;1648079;87;20984;-90
2022/10/12 08:40:17;;;;;;;9.57;4.77;;;;;;;18.01;59.01;100213.89;1665424;85;21532;-84
2022/10/12 08:43:20;;;;;;;7.87;4.80;;;;;;;17.87;59.53;100220.98;1666782;85;21909;-84
2022/10/12 08:45:54;;;;;;;16.25;4.72;;;;;;;17.93;59.04;100215.41;1651177;86;20926;-90
2022/10/12 08:48:25;;;;;;;9.40;4.87;;;;;;;17.95;58.08;100214.47;1647061;86;20999;-79
2022/10/12 08:51:01;;;;;;;8.43;4.20;;;;;;;18.12;58.69;100226.73;1647169;87;20972;-78
2022/10/12 08:53:34;;;;;;;9.88;4.40;;;;;;;18.63;58.60;100214.55;1646650;87;21036;-79
2022/10/12 08:56:00;;;;;;;12.43;4.85;;;;;;;18.82;56.51;100216.68;1646861;87;21191;-80
2022/10/12 08:58:36;;;;;;;8.40;3.87;;;;;;;18.68;56.58;100224.03;1625804;87;20901;-84
2022/10/12 09:01:14;;;;;;;9.43;4.15;;;;;;;18.72;55.65;100218.00;1626397;87;20965;-81
2022/10/12 09:04:15;;;;;;;12.35;4.33;;;;;;;18.65;54.35;100215.01;1646951;87;20961;-80
2022/10/12 09:06:50;;;;;;;7.62;3.12;;;;;;;18.51;56.25;100222.91;1646709;87;21020;-79
2022/10/12 09:09:45;;;;;;;12.13;4.20;;;;;;;18.78;55.14;100212.41;1646543;86;21106;-78
2022/10/12 09:12:41;;;;;;;7.90;4.17;;;;;;;19.06;54.78;100213.17;1657443;85;20945;-75
2022/10/12 09:15:36;;;;;;;10.25;4.40;;;;;;;19.19;52.66;100223.64;1612582;87;20969;-79
2022/10/12 09:18:07;;;;;;;6.33;3.45;;;;;;;19.25;51.42;100218.05;1659417;86;20980;-78
2022/10/12 09:20:39;;;;;;;9.03;3.83;;;;;;;19.18;51.67;100215.07;1618351;87;20937;-80
2022/10/12 09:23:29;;;;;;;11.00;4.15;;;;;;;19.28;52.03;100219.30;1658285;86;21148;-74
2022/10/12 09:26:03;;;;;;;9.13;3.85;;;;;;;19.03;50.54;100222.26;1653209;85;20932;-74
2022/10/12 09:28:37;;;;;;;9.93;3.95;;;;;;;18.66;52.44;100216.63;1655292;86;21496;-78
2022/10/12 09:31:30;;;;;;;10.43;3.02;;;;;;;18.76;52.70;100217.52;1653611;86;20944;-73
2022/10/12 09:33:58;;;;;;;12.82;2.87;;;;;;;18.63;50.47;100215.36;1653726;86;21091;-71
2022/10/12 09:36:32;;;;;;;8.18;3.08;;;;;;;18.12;51.43;100219.20;1653642;86;21270;-77
2022/10/12 09:38:59;;;;;;;8.08;3.60;;;;;;;18.01;51.88;100218.63;1701808;84;21605;-78
2022/10/12 09:41:34;;;;;;;8.08;3.40;;;;;;;18.25;52.11;100218.59;1697928;84;20901;-76
2022/10/12 09:44:04;;;;;;;6.28;2.72;;;;;;;18.58;51.43;100221.72;1696841;83;21044;-72
2022/10/12 09:47:00;;;;;;;20.30;3.92;;;;;;;18.80;50.70;100208.69;1696945;83;20999;-74
2022/10/12 09:49:45;;;;;;;9.38;3.33;;;;;;;18.78;48.94;100224.34;1697015;84;21211;-78
2022/10/12 09:52:14;;;;;;;8.93;3.15;;;;;;;18.14;50.17;100212.71;1683258;84;21003;-76
2022/10/12 09:54:51;;;;;;;12.65;3.42;;;;;;;18.01;51.62;100207.52;1698558;84;20980;-78
2022/10/12 09:57:36;;;;;;;9.83;3.47;;;;;;;18.23;48.99;100207.02;1698722;83;21022;-78
2022/10/12 10:00:11;;;;;;;10.78;2.60;;;;;;;18.47;49.60;100204.18;1712127;83;20975;-80
2022/10/12 10:02:48;;;;;;;7.75;2.67;;;;;;;18.88;47.00;100199.38;1662628;84;21752;-80
2022/10/12 10:05:30;;;;;;;9.83;2.75;;;;;;;19.13;47.22;100199.45;1664219;86;20981;-75
2022/10/12 10:08:20;;;;;;;6.30;3.07;;;;;;;19.47;45.99;100195.74;1664063;85;20988;-73
2022/10/12 10:10:57;;;;;;;7.90;2.20;;;;;;;19.93;46.53;100200.23;1646563;86;21008;-73
2022/10/12 10:13:28;;;;;;;10.43;2.30;;;;;;;20.14;39.39;100189.58;1619449;87;21531;-73
2022/10/12 10:16:09;;;;;;;4.80;1.82;;;;;;;19.73;40.18;100197.39;1647676;85;20925;-72
2022/10/12 10:18:55;;;;;;;11.22;2.50;;;;;;;19.62;39.87;100192.17;1642311;87;20878;-75
2022/10/12 10:21:35;;;;;;;8.43;3.50;;;;;;;19.92;40.72;100200.02;1644878;86;21330;-71
2022/10/12 10:24:05;;;;;;;8.73;2.22;;;;;;;20.56;38.77;100192.48;1648583;86;20920;-76
2022/10/12 10:26:55;;;;;;;5.47;2.20;;;;;;;20.96;38.26;100194.84;1646534;86;21012;-86
2022/10/12 10:29:36;;;;;;;6.97;1.80;;;;;;;20.95;37.44;100189.05;1662839;85;21118;-85
2022/10/12 10:32:25;;;;;;;4.63;1.70;;;;;;;20.54;36.04;100192.63;1659127;86;21025;-83
2022/10/12 10:35:19;;;;;;;4.70;1.85;;;;;;;20.17;35.83;100193.03;1662856;86;21606;-81
2022/10/12 10:37:56;;;;;;;6.50;2.25;;;;;;;20.20;36.64;100195.09;1658043;86;21113;-75
2022/10/12 10:40:31;;;;;;;12.82;2.45;;;;;;;20.27;36.83;100197.20;1654501;85;21464;-74
2022/10/12 10:43:03;;;;;;;9.93;2.67;;;;;;;20.56;36.71;100200.04;1696636;84;21098;-73
2022/10/12 10:45:45;;;;;;;8.20;3.15;;;;;;;20.79;35.43;100188.36;1704640;83;20971;-77
2022/10/12 10:48:18;;;;;;;6.00;2.65;;;;;;;20.46;36.65;100211.19;1712610;83;20944;-80
2022/10/12 10:50:55;;;;;;;9.25;2.35;;;;;;;20.11;36.89;100197.27;1686982;84;20952;-79
2022/10/12 10:53:25;;;;;;;10.45;3.45;;;;;;;19.64;38.37;100200.95;1695163;84;21003;-76
2022/10/12 10:56:00;;;;;;;11.10;4.42;;;;;;;19.25;39.33;100210.28;1695110;84;21145;-80
2022/10/12 10:58:44;;;;;;;11.88;3.80;;;;;;;18.83;38.44;100205.78;1691369;84;20940;-75
2022/10/12 11:01:26;;;;;;;8.18;3.40;;;;;;;18.59;39.80;100202.48;1704252;83;21066;-74
2022/10/12 11:04:10;;;;;;;6.72;2.70;;;;;;;18.70;39.79;100202.25;1704680;83;21107;-74
2022/10/12 11:06:46;;;;;;;11.30;2.75;;;;;;;19.08;39.03;100207.25;1656183;84;21044;-75
2022/10/12 11:09:24;;;;;;;8.15;3.75;;;;;;;19.58;38.18;100194.06;1663653;85;21107;-78
2022/10/12 11:12:08;;;;;;;8.68;2.72;;;;;;;20.05;38.87;100191.17;1646217;87;20968;-76
2022/10/12 11:14:54;;;;;;;7.40;3.02;;;;;;;20.20;37.76;100189.52;1666593;86;20892;-74
2022/10/12 11:17:32;;;;;;;12.30;3.47;;;;;;;20.03;38.07;100190.73;1690846;83;20959;-82
2022/10/12 11:20:07;;;;;;;12.18;2.83;;;;;;;19.59;37.30;100191.50;1712316;82;21022;-76
2022/10/12 11:22:53;;;;;;;8.68;2.62;;;;;;;19.04;38.88;100186.89;1712486;83;21225;-71
2022/10/12 11:25:37;;;;;;;6.95;3.02;;;;;;;18.70;38.47;100187.76;1712733;83;20932;-72
2022/10/12 11:28:06;;;;;;;8.53;3.10;;;;;;;18.84;39.66;100194.30;1712569;83;20939;-71
2022/10/12 11:30:40;;;;;;;7.72;2.85;;;;;;;19.32;38.76;100179.84;1712514;83;20992;-69
2022/10/12 11:33:23;;;;;;;9.53;2.30;;;;;;;19.82;40.67;100179.67;1713054;83;21009;-71
2022/10/12 11:35:49;;;;;;;11.45;2.80;;;;;;;20.51;38.21;100183.60;1713667;83;21112;-78
2022/10/12 11:38:28;;;;;;;9.58;3.15;;;;;;;21.04;36.93;100179.84;1703853;82;21004;-74
2022/10/12 11:41:18;;;;;;;10.08;4.22;;;;;;;21.37;36.40;100187.62;1702151;84;20957;-73